Flight Track Log - Related Links

Times and Time Zones

All times are in EDT time to prevent confusion due to time zone crossing. See the UAL1161 flight status page for this flight to view local times or setup timezone preferences in your user account.


Time Position Orientation Groundspeed Altitude Reporting Facility
EDT Latitude Longitude Course Direction KTS MPH feet Rate Location/Type
Thu 02:16:17 PM 37.6328 -122.3630 29° Northeast 180 207 500  Level FlightAware ADS-B
Thu 02:16:33 PM 37.6433 -122.3530 42° Northeast 193 222 1,100 1,909 Climbing FlightAware ADS-B
Thu 02:16:39 PM 37.6473 -122.3480 47° Northeast 202 232 1,200 2,087 Climbing FlightAware ADS-B
Thu 02:16:56 PM 37.6578 -122.3320 50° Northeast 207 238 1,900 2,625 Climbing FlightAware ADS-B
Thu 02:17:11 PM 37.6674 -122.3180 50° Northeast 208 239 2,600 2,667 Climbing FlightAware ADS-B
Thu 02:17:23 PM 37.6744 -122.3070 51° Northeast 207 238 3,100 2,333 Climbing FlightAware ADS-B
Thu 02:17:29 PM 37.6781 -122.3017 50° Northeast 217 250 3,300 1,200 Climbing FlightAware ADS-B
Thu 02:17:38 PM 37.6843 -122.2920 50° Northeast 229 264 3,400 1,440 Climbing FlightAware ADS-B
Thu 02:17:54 PM 37.6962 -122.2750 49° Northeast 247 284 3,900 1,688 Climbing FlightAware ADS-B
Thu 02:18:10 PM 37.7087 -122.2564 49° Northeast 271 312 4,300 2,143 Climbing FlightAware ADS-B
Thu 02:18:22 PM 37.7187 -122.2410 50° Northeast 277 319 4,900 3,000 Climbing FlightAware ADS-B
Thu 02:18:30 PM 37.7250 -122.2319 50° Northeast 279 321 5,300 2,824 Climbing FlightAware ADS-B
Thu 02:18:39 PM 37.7326 -122.2200 50° Northeast 279 321 5,700 2,842 Climbing FlightAware ADS-B
Thu 02:18:49 PM 37.7406 -122.2078 50° Northeast 285 328 6,200 2,870 Climbing FlightAware ADS-B
Thu 02:19:02 PM 37.7515 -122.1910 51° Northeast 288 331 6,800 2,727 Climbing FlightAware ADS-B
Thu 02:19:11 PM 37.7590 -122.1790 52° Northeast 294 338 7,200 2,870 Climbing FlightAware ADS-B
Thu 02:19:25 PM 37.7685 -122.1580 62° Northeast 297 342 7,900 3,000 Climbing FlightAware ADS-B
Thu 02:19:31 PM 37.7719 -122.1480 67° East 297 342 8,200 2,571 Climbing FlightAware ADS-B
Thu 02:19:46 PM 37.7784 -122.1240 72° East 303 349 8,800 2,526 Climbing FlightAware ADS-B
Thu 02:19:50 PM 37.7802 -122.1170 51° Northeast 288 331 9,000 2,800 Climbing FlightAware ADS-B
Thu 02:20:01 PM 37.7850 -122.0990 72° East 305 351 9,500 2,000 Climbing FlightAware ADS-B
Thu 02:20:08 PM 37.7833 -122.1050 71° East 304 350 9,600 2,769 Climbing FlightAware ADS-B
Thu 02:20:27 PM 37.7970 -122.0540 71° East 313 360 10,700 3,081 Climbing FlightAware ADS-B
Thu 02:20:45 PM 37.8051 -122.0242 71° East 316 364 11,500 2,710 Climbing FlightAware ADS-B
Thu 02:20:58 PM 37.8116 -122.0000 71° East 320 368 12,100 2,421 Climbing FlightAware ADS-B
Thu 02:21:42 PM 37.8324 -121.9235 71° East 336 387 13,800 2,375 Climbing FlightAware ADS-B
Thu 02:21:46 PM 37.8352 -121.9130 71° East 329 379 14,000 1,588 Climbing FlightAware ADS-B
Thu 02:22:16 PM 37.8506 -121.8550 71° East 359 413 14,700 1,256 Climbing FlightAware ADS-B
Thu 02:22:29 PM 37.8523 -121.8488 71° East 363 418 14,900 968 Climbing FlightAware ADS-B
Thu 02:22:47 PM 37.8679 -121.7900 71° East 392 451 15,200 900 Climbing FlightAware ADS-B
Thu 02:23:09 PM 37.8755 -121.7618 71° East 407 468 15,500 1,200 Climbing FlightAware ADS-B
Thu 02:23:17 PM 37.8863 -121.7220 71° East 416 479 15,800 1,737 Climbing FlightAware ADS-B
Thu 02:23:47 PM 37.9053 -121.6490 72° East 434 499 16,600 1,714 Climbing FlightAware ADS-B
Thu 02:24:06 PM 37.9147 -121.6030 76° East 440 506 17,200 1,610 Climbing FlightAware ADS-B
Thu 02:24:28 PM 37.9207 -121.5719 76° East 444 511 17,700 1,935 Climbing FlightAware ADS-B
Thu 02:24:37 PM 37.9295 -121.5260 76° East 451 519 18,200 1,800 Climbing FlightAware ADS-B
Thu 02:25:08 PM 37.9408 -121.4674 76° East 456 525 18,900 1,583 Climbing FlightAware ADS-B
Thu 02:25:49 PM 37.9617 -121.3583 76° East 469 540 20,100 1,842 Climbing FlightAware ADS-B
Thu 02:26:49 PM 37.9927 -121.1968 76° East 478 550 22,000 1,776 Climbing FlightAware ADS-B
Thu 02:27:27 PM 38.0122 -121.0947 76° East 487 560 23,000 1,500 Climbing FlightAware ADS-B
Thu 02:28:09 PM 38.0357 -120.9708 76° East 498 573 24,000 1,407 Climbing FlightAware ADS-B
Thu 02:28:48 PM 38.0564 -120.8614 76° East 506 582 24,900 1,333 Climbing FlightAware ADS-B
Thu 02:29:30 PM 38.0794 -120.7391 76° East 515 593 25,800 1,244 Climbing FlightAware ADS-B
Thu 02:30:10 PM 38.1017 -120.6185 76° East 523 602 26,600 1,150 Climbing FlightAware ADS-B
Thu 02:31:30 PM 38.1458 -120.3792 76° East 533 613 28,100 1,295 Climbing FlightAware ADS-B
Thu 02:32:29 PM 38.1790 -120.1968 77° East 530 610 29,600 1,455 Climbing FlightAware ADS-B
Thu 02:33:09 PM 38.2003 -120.0792 77° East 530 610 30,500 1,275 Climbing FlightAware ADS-B
Thu 02:33:49 PM 38.2224 -119.9563 77° East 531 611 31,300 1,111 Climbing FlightAware ADS-B
Thu 02:34:30 PM 38.2417 -119.8487 77° East 531 611 32,000 1,125 Climbing FlightAware ADS-B
Thu 02:35:09 PM 38.2659 -119.7125 77° East 530 610 32,800 1,063 Climbing FlightAware ADS-B
Thu 02:35:49 PM 38.2877 -119.5888 77° East 529 609 33,400 1,297 Climbing FlightAware ADS-B
Thu 02:36:23 PM 38.3094 -119.4649 78° East 523 602 34,400 1,200 Climbing FlightAware ADS-B
Thu 02:37:09 PM 38.3229 -119.3871 77° East 521 600 35,000 414 Climbing FlightAware ADS-B
Thu 02:37:50 PM 38.3404 -119.2865 77° East 523 602 35,000  Level FlightAware ADS-B
Thu 02:38:35 PM 38.3753 -119.0792 77° East 521 600 35,000  Level Oakland Center
Thu 02:39:37 PM 38.4058 -118.8994 78° East 521 600 35,000  Level Oakland Center
Thu 02:40:39 PM 38.4367 -118.7194 78° East 521 600 35,000  Level Oakland Center
Thu 02:41:40 PM 38.4661 -118.5414 78° East 521 600 35,000  Level Oakland Center
Thu 02:42:42 PM 38.4956 -118.3639 78° East 518 596 35,000  Level Oakland Center
Thu 02:43:43 PM 38.5250 -118.1853 78° East 518 596 35,000  Level Oakland Center
Thu 02:44:45 PM 38.5561 -117.9944 78° East 511 588 35,000  Level Oakland Center
Thu 02:45:46 PM 38.5842 -117.8147 79° East 511 588 35,000  Level Oakland Center
Thu 02:46:48 PM 38.6125 -117.6367 78° East 511 588 35,000  Level Oakland Center
Thu 02:47:49 PM 38.6411 -117.4572 78° East 511 588 35,000  Level Oakland Center
Thu 02:48:51 PM 38.6686 -117.2772 79° East 511 588 35,000  Level Oakland Center
Thu 02:49:52 PM 38.7025 -117.0603 79° East 512 589 35,000  Level Oakland Center
Thu 02:50:54 PM 38.7292 -116.8806 79° East 512 589 35,000  Level Oakland Center
Thu 02:51:55 PM 38.7556 -116.6997 79° East 512 589 35,000  Level Oakland Center
Thu 02:52:57 PM 38.7831 -116.5194 79° East 513 590 35,000  Level Oakland Center
Thu 02:53:58 PM 38.8092 -116.3392 79° East 513 590 35,000  Level Oakland Center
Thu 02:55:00 PM 38.8353 -116.1581 79° East 513 590 35,000  Level Oakland Center
Thu 02:56:20 PM 38.8711 -115.9064 80° East 513 590 35,000  Level Salt Lake Center
Thu 02:57:22 PM 38.8961 -115.7261 80° East 513 590 35,000  Level Salt Lake Center
Thu 02:58:24 PM 38.9211 -115.5475 80° East 513 590 35,000  Level Salt Lake Center
Thu 03:03:07 PM 39.0383 -114.6868 80° East 504 580 35,000  Level FlightAware ADS-B
Thu 03:04:44 PM 39.0748 -114.4039 81° East 503 579 35,000  Level FlightAware ADS-B
Thu 03:05:44 PM 39.0963 -114.2354 81° East 504 580 35,000  Level FlightAware ADS-B
Thu 03:06:49 PM 39.1207 -114.0419 81° East 502 578 35,000  Level FlightAware ADS-B
Thu 03:07:55 PM 39.1387 -113.8975 81° East 504 580 35,000  Level FlightAware ADS-B
Thu 03:08:31 PM 39.1590 -113.7318 81° East 504 580 35,000  Level FlightAware ADS-B
Thu 03:09:03 PM 39.1705 -113.6382 81° East 505 581 35,000  Level FlightAware ADS-B
Thu 03:09:34 PM 39.1816 -113.5457 81° East 504 580 35,000  Level FlightAware ADS-B
Thu 03:10:04 PM 39.1917 -113.4621 81° East 505 581 35,000  Level FlightAware ADS-B
Thu 03:10:38 PM 39.2038 -113.3605 81° East 506 582 35,000  Level FlightAware ADS-B
Thu 03:11:14 PM 39.2171 -113.2487 82° East 505 581 35,000  Level FlightAware ADS-B (KBTF)
Thu 03:11:51 PM 39.2301 -113.1376 81° East 508 585 35,000  Level FlightAware ADS-B
Thu 03:12:30 PM 39.2435 -113.0222 82° East 508 585 35,000  Level FlightAware ADS-B
Thu 03:12:54 PM 39.2518 -112.9509 82° East 508 585 35,000  Level FlightAware ADS-B
Thu 03:13:13 PM 39.2586 -112.8915 83° East 508 585 35,000  Level FlightAware ADS-B (KBTF)
Thu 03:13:33 PM 39.2652 -112.8339 82° East 510 587 35,000  Level FlightAware ADS-B
Thu 03:14:08 PM 39.2773 -112.7278 82° East 510 587 35,000  Level FlightAware ADS-B
Thu 03:14:19 PM 39.2812 -112.6935 83° East 509 586 35,000  Level FlightAware ADS-B
Thu 03:14:49 PM 39.2912 -112.6042 82° East 510 587 35,000  Level FlightAware ADS-B
Thu 03:15:00 PM 39.2950 -112.5702 82° East 510 587 35,000  Level FlightAware ADS-B
Thu 03:15:32 PM 39.3075 -112.4771 77° East 507 583 35,000  Level FlightAware ADS-B
Thu 03:15:43 PM 39.3136 -112.4451 76° East 506 582 35,000  Level FlightAware ADS-B
Thu 03:16:02 PM 39.3245 -112.3865 76° East 506 582 35,000  Level FlightAware ADS-B
Thu 03:16:35 PM 39.3421 -112.2923 77° East 505 581 35,000  Level FlightAware ADS-B (KBTF)
Thu 03:17:08 PM 39.3604 -112.1942 77° East 504 580 35,000  Level FlightAware ADS-B
Thu 03:17:55 PM 39.3855 -112.0586 77° East 502 578 35,000  Level FlightAware ADS-B
Thu 03:18:30 PM 39.4045 -111.9559 77° East 501 577 35,000  Level FlightAware ADS-B
Thu 03:19:01 PM 39.4204 -111.8688 77° East 500 575 35,000  Level FlightAware ADS-B
Thu 03:19:37 PM 39.4398 -111.7625 77° East 498 573 35,000  Level FlightAware ADS-B
Thu 03:20:12 PM 39.4585 -111.6596 77° East 497 572 35,000  Level FlightAware ADS-B
Thu 03:20:48 PM 39.4762 -111.5610 77° East 495 570 35,000  Level FlightAware ADS-B
Thu 03:21:18 PM 39.4926 -111.4688 77° East 497 572 35,000  Level FlightAware ADS-B
Thu 03:21:52 PM 39.5090 -111.3772 77° East 496 571 35,000  Level FlightAware ADS-B
Thu 03:22:22 PM 39.5246 -111.2892 77° East 496 571 35,000  Level FlightAware ADS-B
Thu 03:22:52 PM 39.5403 -111.2007 77° East 497 572 35,000  Level FlightAware ADS-B
Thu 03:23:32 PM 39.5600 -111.0883 77° East 500 575 35,000  Level FlightAware ADS-B
Thu 03:24:04 PM 39.5768 -110.9928 77° East 499 574 35,000  Level FlightAware ADS-B
Thu 03:24:34 PM 39.5924 -110.9030 78° East 501 577 35,000  Level FlightAware ADS-B
Thu 03:25:08 PM 39.6089 -110.8074 77° East 500 575 35,000  Level FlightAware ADS-B
Thu 03:25:38 PM 39.6235 -110.7219 78° East 498 573 35,000  Level FlightAware ADS-B
Thu 03:26:13 PM 39.6418 -110.6155 78° East 499 574 35,000  Level FlightAware ADS-B
Thu 03:26:43 PM 39.6543 -110.5420 78° East 499 574 35,000  Level FlightAware ADS-B
Thu 03:27:22 PM 39.6758 -110.4155 78° East 497 572 35,000  Level FlightAware ADS-B
Thu 03:28:01 PM 39.6953 -110.2998 78° East 497 572 35,000  Level FlightAware ADS-B (KGUC)
Thu 03:28:36 PM 39.7123 -110.1978 78° East 496 571 35,000  Level FlightAware ADS-B
Thu 03:29:10 PM 39.7280 -110.1037 78° East 496 571 35,000  Level FlightAware ADS-B
Thu 03:29:40 PM 39.7434 -110.0114 78° East 495 570 35,000  Level FlightAware ADS-B
Thu 03:30:13 PM 39.7584 -109.9206 78° East 496 571 35,000  Level FlightAware ADS-B
Thu 03:30:44 PM 39.7734 -109.8290 78° East 496 571 35,000  Level FlightAware ADS-B
Thu 03:31:19 PM 39.7902 -109.7247 78° East 495 570 35,000  Level FlightAware ADS-B
Thu 03:31:49 PM 39.8041 -109.6382 78° East 494 568 35,000  Level FlightAware ADS-B
Thu 03:32:20 PM 39.8186 -109.5478 78° East 496 571 35,000  Level FlightAware ADS-B
Thu 03:32:50 PM 39.8326 -109.4606 78° East 497 572 35,000  Level FlightAware ADS-B
Thu 03:33:23 PM 39.8481 -109.3643 78° East 496 571 35,000  Level FlightAware ADS-B
Thu 03:33:54 PM 39.8625 -109.2735 78° East 497 572 35,000  Level FlightAware ADS-B
Thu 03:34:40 PM 39.8841 -109.1377 78° East 498 573 35,000  Level FlightAware ADS-B
Thu 03:35:10 PM 39.8969 -109.0568 78° East 498 573 35,000  Level FlightAware ADS-B
Thu 03:35:40 PM 39.9114 -108.9632 79° East 498 573 35,000  Level FlightAware ADS-B
Thu 03:36:24 PM 39.9307 -108.8371 79° East 497 572 35,000  Level FlightAware ADS-B
Thu 03:36:54 PM 39.9446 -108.7457 79° East 498 573 35,000  Level FlightAware ADS-B
Thu 03:37:35 PM 39.9625 -108.6285 79° East 501 577 35,000  Level FlightAware ADS-B
Thu 03:38:08 PM 39.9776 -108.5295 79° East 502 578 35,000  Level FlightAware ADS-B
Thu 03:38:40 PM 39.9923 -108.4333 79° East 503 579 35,000  Level FlightAware ADS-B (KGUC)
Thu 03:39:10 PM 40.0061 -108.3417 79° East 502 578 35,000  Level FlightAware ADS-B (KGUC)
Thu 03:39:40 PM 40.0192 -108.2532 79° East 501 577 35,000  Level FlightAware ADS-B (KGUC)
Thu 03:40:16 PM 40.0347 -108.1484 79° East 500 575 35,000  Level FlightAware ADS-B
Thu 03:40:50 PM 40.0496 -108.0474 79° East 500 575 35,000  Level FlightAware ADS-B
Thu 03:41:20 PM 40.0622 -107.9608 79° East 499 574 35,000  Level FlightAware ADS-B
Thu 03:42:01 PM 40.0786 -107.8425 81° East 499 574 35,000  Level FlightAware ADS-B
Thu 03:42:43 PM 40.0941 -107.7136 81° East 499 574 35,000  Level FlightAware ADS-B
Thu 03:43:15 PM 40.1056 -107.6177 81° East 499 574 35,000  Level FlightAware ADS-B
Thu 03:43:50 PM 40.1174 -107.5212 81° East 499 574 35,000  Level FlightAware ADS-B (KGUC)
Thu 03:44:26 PM 40.1312 -107.4075 81° East 498 573 35,000  Level FlightAware ADS-B
Thu 03:44:57 PM 40.1423 -107.3162 81° East 497 572 35,000  Level FlightAware ADS-B
Thu 03:45:36 PM 40.1561 -107.2011 81° East 495 570 35,000  Level FlightAware ADS-B
Thu 03:47:02 PM 40.1863 -106.9489 81° East 493 567 35,000  Level FlightAware ADS-B (GIB / LXGB)
Thu 03:47:41 PM 40.2000 -106.8330 81° East 493 567 35,000  Level FlightAware ADS-B (GIB / LXGB)
Thu 03:48:21 PM 40.2135 -106.7171 81° East 496 571 35,000  Level FlightAware ADS-B (GIB / LXGB)
Thu 03:48:52 PM 40.2237 -106.6295 81° East 497 572 35,000  Level FlightAware ADS-B (GIB / LXGB)
Thu 03:49:41 PM 40.2400 -106.4848 82° East 495 570 35,000  Level FlightAware ADS-B (GIB / LXGB)
Thu 03:50:22 PM 40.2541 -106.3584 82° East 494 568 35,000  Level FlightAware ADS-B (GIB / LXGB)
Thu 03:50:53 PM 40.2644 -106.2675 82° East 494 568 35,000  Level FlightAware ADS-B (GIB / LXGB)
Thu 03:51:42 PM 40.2796 -106.1309 82° East 496 571 35,000  Level FlightAware ADS-B (GIB / LXGB)
Thu 03:52:44 PM 40.3005 -105.9369 82° East 496 571 35,000  Level FlightAware ADS-B (GIB / LXGB)
Thu 03:53:14 PM 40.3100 -105.8481 82° East 496 571 35,000  Level FlightAware ADS-B (GIB / LXGB)
Thu 03:53:59 PM 40.3238 -105.7187 82° East 493 567 35,000  Level FlightAware ADS-B (GIB / LXGB)
Thu 03:54:31 PM 40.3346 -105.6211 82° East 492 566 35,000  Level FlightAware ADS-B (GIB / LXGB)
Thu 03:55:15 PM 40.3483 -105.4925 82° East 493 567 35,000  Level FlightAware ADS-B (GIB / LXGB)
Thu 03:55:54 PM 40.3590 -105.3869 82° East 494 568 35,000  Level FlightAware ADS-B (KOXR)
Thu 03:56:24 PM 40.3683 -105.2960 82° East 493 567 35,000  Level FlightAware ADS-B (GIB / LXGB)
Thu 03:56:54 PM 40.3778 -105.2030 82° East 494 568 35,000  Level FlightAware ADS-B (KOXR)
Thu 03:57:25 PM 40.3872 -105.1101 83° East 495 570 35,000  Level FlightAware ADS-B (KOXR)
Thu 03:57:56 PM 40.3969 -105.0136 83° East 496 571 35,000  Level FlightAware ADS-B (SYQ / MRPV)
Thu 03:58:40 PM 40.4092 -104.8883 83° East 493 567 35,000  Level FlightAware ADS-B (KOXR)
Thu 03:59:13 PM 40.4195 -104.7851 83° East 493 567 35,000  Level FlightAware ADS-B (SYQ / MRPV)
Thu 03:59:45 PM 40.4286 -104.6923 83° East 493 567 35,000  Level FlightAware ADS-B (SYQ / MRPV)
Thu 04:00:18 PM 40.4362 -104.6136 83° East 493 567 35,000  Level FlightAware ADS-B (GIB / LXGB)
Thu 04:00:55 PM 40.4484 -104.4872 83° East 495 570 35,000  Level FlightAware ADS-B (KOXR)
Thu 04:01:25 PM 40.4568 -104.3977 83° East 495 570 35,000  Level FlightAware ADS-B (KOXR)
Thu 04:02:09 PM 40.4691 -104.2662 83° East 495 570 35,000  Level FlightAware ADS-B (KOXR)
Thu 04:02:40 PM 40.4778 -104.1739 83° East 494 568 35,000  Level FlightAware ADS-B (KOXR)
Thu 04:03:11 PM 40.4862 -104.0830 83° East 495 570 35,000  Level FlightAware ADS-B (KOXR)
Thu 04:03:47 PM 40.4963 -103.9726 83° East 493 567 35,000  Level FlightAware ADS-B (SYQ / MRPV)
Thu 04:04:19 PM 40.5035 -103.8931 83° East 493 567 35,000  Level FlightAware ADS-B (GIB / LXGB)
Thu 04:04:56 PM 40.5144 -103.7706 83° East 491 565 35,000  Level FlightAware ADS-B (KOXR)
Thu 04:05:34 PM 40.5240 -103.6620 83° East 490 564 35,000  Level FlightAware ADS-B (SYQ / MRPV)
Thu 04:06:12 PM 40.5342 -103.5444 84° East 489 563 35,000  Level FlightAware ADS-B (GIB / LXGB)
Thu 04:06:52 PM 40.5438 -103.4322 84° East 487 560 35,000  Level FlightAware ADS-B (GIB / LXGB)
Thu 04:07:26 PM 40.5521 -103.3363 84° East 485 558 35,000  Level FlightAware ADS-B (KOXR)
Thu 04:08:04 PM 40.5623 -103.2173 84° East 483 556 35,000  Level FlightAware ADS-B (SYQ / MRPV)
Thu 04:08:41 PM 40.5709 -103.1122 84° East 482 555 35,000  Level FlightAware ADS-B (KOXR)
Thu 04:09:17 PM 40.5763 -103.0469 84° East 481 554 35,000  Level FlightAware ADS-B (GIB / LXGB)
Thu 04:09:48 PM 40.5845 -102.9488 84° East 482 555 35,000  Level FlightAware ADS-B (SYQ / MRPV)
Thu 04:10:24 PM 40.5957 -102.8126 84° East 482 555 35,000  Level FlightAware ADS-B (KOXR)
Thu 04:10:57 PM 40.6027 -102.7257 84° East 483 556 35,000  Level FlightAware ADS-B (KOXR)
Thu 04:11:29 PM 40.6067 -102.6755 84° East 484 557 35,000  Level FlightAware ADS-B (GIB / LXGB)
Thu 04:12:08 PM 40.6180 -102.5369 84° East 486 559 35,000  Level FlightAware ADS-B (SYQ / MRPV)
Thu 04:12:38 PM 40.6271 -102.4214 84° East 485 558 35,000  Level FlightAware ADS-B (KOXR)
Thu 04:13:10 PM 40.6341 -102.3280 84° East 486 559 35,000  Level FlightAware ADS-B (KOXR)
Thu 04:13:56 PM 40.6439 -102.1957 85° East 486 559 35,000  Level FlightAware ADS-B (KOXR)
Thu 04:14:27 PM 40.6504 -102.1077 85° East 488 562 35,000  Level FlightAware ADS-B (KOXR)
Thu 04:15:06 PM 40.6569 -102.0190 85° East 489 563 35,000  Level FlightAware ADS-B (KOXR)
Thu 04:15:42 PM 40.6669 -101.8813 85° East 490 564 35,000  Level FlightAware ADS-B (GIB / LXGB)
Thu 04:18:06 PM 40.6964 -101.4650 85° East 493 567 35,000  Level FlightAware ADS-B (KOXR)
Thu 04:18:41 PM 40.7045 -101.3454 85° East 493 567 35,000  Level FlightAware ADS-B (KOXR)
Thu 04:19:12 PM 40.7083 -101.2900 85° East 493 567 35,000  Level FlightAware ADS-B (KOXR)
Thu 04:19:43 PM 40.7170 -101.1614 85° East 493 567 35,000  Level FlightAware ADS-B (KOXR)
Thu 04:20:19 PM 40.7237 -101.0590 85° East 493 567 35,000  Level FlightAware ADS-B (KOXR)
Thu 04:21:27 PM 40.7291 -100.9760 85° East 492 566 35,000  Level FlightAware ADS-B (SYQ / MRPV)
Thu 04:23:07 PM 40.7535 -100.5866 85° East 491 565 35,000  Level FlightAware ADS-B (SYQ / MRPV)
Thu 04:23:26 PM 40.7591 -100.4936 85° East 491 565 35,000  Level FlightAware ADS-B (SYQ / MRPV)
Thu 04:23:59 PM 40.7644 -100.4028 86° East 489 563 35,000  Level FlightAware ADS-B (KOXR)
Thu 04:24:47 PM 40.7637 -100.4147 86° East 489 563 35,000  Level FlightAware ADS-B (SYQ / MRPV)
Thu 04:28:08 PM 40.8061 -99.6630 86° East 474 545 35,000  Level FlightAware ADS-B
Thu 04:28:38 PM 40.8105 -99.5765 86° East 470 541 35,000  Level FlightAware ADS-B
Thu 04:29:08 PM 40.8150 -99.4907 86° East 467 537 35,000  Level FlightAware ADS-B
Thu 04:29:39 PM 40.8197 -99.4044 86° East 466 536 35,000  Level FlightAware ADS-B
Thu 04:31:14 PM 40.8328 -99.1334 86° East 467 537 35,000  Level FlightAware ADS-B
Thu 04:31:46 PM 40.8371 -99.0444 86° East 466 536 35,000  Level FlightAware ADS-B
Thu 04:32:16 PM 40.8413 -98.9581 86° East 466 536 35,000  Level FlightAware ADS-B
Thu 04:32:47 PM 40.8453 -98.8718 87° East 465 535 35,000  Level FlightAware ADS-B
Thu 04:33:17 PM 40.8493 -98.7850 87° East 465 535 35,000  Level FlightAware ADS-B
Thu 04:33:50 PM 40.8533 -98.6935 87° East 465 535 35,000  Level FlightAware ADS-B
Thu 04:34:22 PM 40.8574 -98.6024 87° East 465 535 35,000  Level FlightAware ADS-B
Thu 04:34:52 PM 40.8612 -98.5173 87° East 464 534 35,000  Level FlightAware ADS-B
Thu 04:35:22 PM 40.8647 -98.4327 87° East 465 535 35,000  Level FlightAware ADS-B
Thu 04:35:53 PM 40.8683 -98.3459 87° East 465 535 35,000  Level FlightAware ADS-B
Thu 04:36:23 PM 40.8717 -98.2597 87° East 467 537 35,000  Level FlightAware ADS-B
Thu 04:36:57 PM 40.8757 -98.1628 87° East 466 536 35,000  Level FlightAware ADS-B
Thu 04:37:28 PM 40.8792 -98.0771 87° East 466 536 35,000  Level FlightAware ADS-B
Thu 04:38:20 PM 40.8847 -97.9279 87° East 465 535 35,000  Level FlightAware ADS-B
Thu 04:38:52 PM 40.8881 -97.8381 87° East 464 534 35,000  Level FlightAware ADS-B
Thu 04:39:23 PM 40.8915 -97.7516 87° East 464 534 35,000  Level FlightAware ADS-B
Thu 04:39:54 PM 40.8948 -97.6644 87° East 464 534 35,000  Level FlightAware ADS-B
Thu 04:40:24 PM 40.8979 -97.5785 87° East 465 535 35,000  Level FlightAware ADS-B
Thu 04:40:50 PM 40.9006 -97.5063 86° East 466 536 35,000  Level FlightAware ADS-B
Thu 04:41:09 PM 40.9066 -97.4512 79° East 473 544 35,000  Level FlightAware ADS-B
Thu 04:41:16 PM 40.9101 -97.4312 76° East 475 547 35,000  Level FlightAware ADS-B
Thu 04:41:47 PM 40.9258 -97.3459 76° East 474 545 35,000  Level FlightAware ADS-B
Thu 04:42:17 PM 40.9413 -97.2616 76° East 474 545 35,000  Level FlightAware ADS-B
Thu 04:42:47 PM 40.9569 -97.1761 76° East 475 547 35,000  Level FlightAware ADS-B
Thu 04:43:17 PM 40.9724 -97.0911 77° East 474 545 35,000  Level FlightAware ADS-B
Thu 04:43:48 PM 40.9877 -97.0044 77° East 470 541 35,000  Level FlightAware ADS-B
Thu 04:44:19 PM 41.0028 -96.9180 77° East 467 537 35,000  Level FlightAware ADS-B
Thu 04:44:50 PM 41.0178 -96.8325 77° East 464 534 35,000  Level FlightAware ADS-B
Thu 04:45:21 PM 41.0329 -96.7476 77° East 463 533 35,000  Level FlightAware ADS-B
Thu 04:45:52 PM 41.0479 -96.6625 77° East 461 531 35,000  Level FlightAware ADS-B
Thu 04:46:22 PM 41.0626 -96.5798 77° East 459 528 35,000  Level FlightAware ADS-B
Thu 04:46:52 PM 41.0770 -96.4975 77° East 457 526 35,000  Level FlightAware ADS-B
Thu 04:47:23 PM 41.0915 -96.4134 77° East 454 522 35,000  Level FlightAware ADS-B
Thu 04:47:55 PM 41.1060 -96.3290 77° East 452 520 35,000  Level FlightAware ADS-B
Thu 04:48:25 PM 41.1201 -96.2470 77° East 450 518 35,000  Level FlightAware ADS-B
Thu 04:48:55 PM 41.1339 -96.1661 77° East 449 517 35,000  Level FlightAware ADS-B
Thu 04:49:26 PM 41.1478 -96.0848 77° East 447 514 35,000  Level FlightAware ADS-B
Thu 04:49:56 PM 41.1617 -96.0039 77° East 446 513 35,000  Level FlightAware ADS-B
Thu 04:50:27 PM 41.1755 -95.9216 78° East 445 512 35,000  Level FlightAware ADS-B
Thu 04:50:58 PM 41.1893 -95.8388 78° East 443 510 35,000  Level FlightAware ADS-B
Thu 04:51:28 PM 41.2027 -95.7585 77° East 442 509 35,000  Level FlightAware ADS-B
Thu 04:52:00 PM 41.2166 -95.6752 78° East 440 506 35,000  Level FlightAware ADS-B
Thu 04:52:30 PM 41.2298 -95.5960 78° East 437 503 35,000  Level FlightAware ADS-B
Thu 04:53:01 PM 41.2431 -95.5150 78° East 438 504 35,000  Level FlightAware ADS-B
Thu 04:53:32 PM 41.2564 -95.4341 78° East 439 505 35,000  Level FlightAware ADS-B
Thu 04:54:05 PM 41.2706 -95.3467 78° East 440 506 35,000  Level FlightAware ADS-B
Thu 04:54:35 PM 41.2836 -95.2670 78° East 440 506 35,000  Level FlightAware ADS-B
Thu 04:55:06 PM 41.2966 -95.1866 78° East 441 507 35,000  Level FlightAware ADS-B
Thu 04:55:36 PM 41.3095 -95.1064 78° East 442 509 35,000  Level FlightAware ADS-B
Thu 04:56:06 PM 41.3223 -95.0266 78° East 443 510 35,000  Level FlightAware ADS-B
Thu 04:56:36 PM 41.3351 -94.9469 78° East 444 511 35,000  Level FlightAware ADS-B
Thu 04:57:07 PM 41.3481 -94.8651 78° East 445 512 35,000  Level FlightAware ADS-B
Thu 04:57:37 PM 41.3609 -94.7843 78° East 445 512 35,000  Level FlightAware ADS-B
Thu 04:58:08 PM 41.3738 -94.7015 78° East 448 516 35,000  Level FlightAware ADS-B
Thu 04:58:39 PM 41.3867 -94.6190 78° East 449 517 35,000  Level FlightAware ADS-B
Thu 04:59:10 PM 41.3996 -94.5345 79° East 458 527 35,000 295 Level FlightAware ADS-B
Thu 04:59:40 PM 41.4128 -94.4494 78° East 465 535 35,300 871 Climbing FlightAware ADS-B
Thu 05:00:12 PM 41.4267 -94.3599 78° East 465 535 35,900 952 Climbing FlightAware ADS-B
Thu 05:00:43 PM 41.4398 -94.2753 79° East 464 534 36,300 787 Climbing FlightAware ADS-B
Thu 05:01:13 PM 41.4526 -94.1912 78° East 466 536 36,700 600 Climbing FlightAware ADS-B
Thu 05:01:43 PM 41.4658 -94.1047 79° East 472 543 36,900 295 Climbing FlightAware ADS-B
Thu 05:02:14 PM 41.4789 -94.0173 79° East 478 550 37,000 150 Climbing FlightAware ADS-B
Thu 05:02:23 PM 41.4822 -93.9914 81° East 474 545 37,000  Level FlightAware ADS-B
Thu 05:02:53 PM 41.4909 -93.9045 83° East 472 543 37,000  Level FlightAware ADS-B
Thu 05:03:24 PM 41.4998 -93.8136 83° East 472 543 37,000  Level FlightAware ADS-B
Thu 05:03:54 PM 41.5083 -93.7272 83° East 470 541 37,000  Level FlightAware ADS-B
Thu 05:04:04 PM 41.5107 -93.7029 83° East 470 541 37,000  Level FlightAware ADS-B
Thu 05:04:25 PM 41.5165 -93.6402 83° East 469 540 37,000  Level FlightAware ADS-B
Thu 05:04:55 PM 41.5248 -93.5533 83° East 468 539 37,000  Level FlightAware ADS-B
Thu 05:05:26 PM 41.5331 -93.4666 83° East 467 537 37,000  Level FlightAware ADS-B
Thu 05:05:57 PM 41.5417 -93.3770 83° East 468 539 37,000  Level FlightAware ADS-B
Thu 05:06:30 PM 41.5507 -93.2833 83° East 468 539 37,000  Level FlightAware ADS-B
Thu 05:11:45 PM 41.6318 -92.3800 83° East 476 548 37,000  Level FlightAware ADS-B
Thu 05:12:15 PM 41.6392 -92.2947 84° East 478 550 37,000  Level FlightAware ADS-B
Thu 05:12:51 PM 41.6486 -92.1835 84° East 480 552 37,000  Level FlightAware ADS-B
Thu 05:13:21 PM 41.6553 -92.1043 84° East 481 554 37,000  Level FlightAware ADS-B
Thu 05:13:58 PM 41.6653 -91.9832 84° East 483 556 37,000  Level FlightAware ADS-B
Thu 05:14:28 PM 41.6721 -91.8967 84° East 484 557 37,000  Level FlightAware ADS-B
Thu 05:15:05 PM 41.6809 -91.7887 84° East 482 555 37,000  Level FlightAware ADS-B
Thu 05:15:36 PM 41.6887 -91.6950 84° East 480 552 37,000  Level FlightAware ADS-B
Thu 05:16:19 PM 41.6985 -91.5712 84° East 479 551 37,000  Level FlightAware ADS-B
Thu 05:17:12 PM 41.7066 -91.4679 84° East 478 550 37,000  Level FlightAware ADS-B
Thu 05:18:08 PM 41.7214 -91.2757 84° East 475 547 37,000  Level FlightAware ADS-B
Thu 05:18:39 PM 41.7299 -91.1614 84° East 476 548 37,000  Level FlightAware ADS-B
Thu 05:19:40 PM 41.7431 -90.9846 84° East 478 550 37,000  Level FlightAware ADS-B
Thu 05:20:41 PM 41.7563 -90.8037 84° East 482 555 37,000  Level FlightAware ADS-B
Thu 05:21:42 PM 41.7694 -90.6213 85° East 484 557 37,000  Level FlightAware ADS-B
Thu 05:22:37 PM 41.7808 -90.4561 85° East 484 557 37,000  Level FlightAware ADS-B
Thu 05:23:28 PM 41.7909 -90.3049 85° East 484 557 37,000  Level FlightAware ADS-B
Thu 05:26:58 PM 41.7728 -90.5725 85° East 483 556 37,000  Level FlightAware ADS-B
Thu 05:30:31 PM 41.7728 -90.5725 86° East 485 558 37,000  Level FlightAware ADS-B
Thu 05:31:40 PM 41.8800 -88.8536 86° East 482 555 37,000  Level Chicago Center
Thu 05:37:05 PM 41.8884 -88.6922 86° East 494 568 37,000  Level FlightAware ADS-B
Thu 05:39:31 PM 41.8884 -88.6922 86° East 494 568 37,000  Level FlightAware ADS-B
Thu 05:43:04 PM 41.9731 -86.7981 87° East 488 562 37,000  Level Chicago Center
Thu 05:44:06 PM 41.9811 -86.5989 87° East 486 559 37,000  Level Chicago Center
Thu 05:45:08 PM 41.9864 -86.4178 88° East 484 557 37,000 -209 Level Chicago Center
Thu 05:50:47 PM 42.0174 -85.3650 88° East 493 567 35,600 -341 Descending FlightAware ADS-B (KBHM)
Thu 05:51:17 PM 42.0196 -85.2709 88° East 492 566 34,900 -2,091 Descending FlightAware ADS-B (KBHM)
Thu 05:51:53 PM 42.0221 -85.1604 88° East 493 567 33,300 -1,606 Descending FlightAware ADS-B (KBHM)
Thu 05:52:28 PM 42.0242 -85.0675 88° East 489 563 33,000 -277 Descending FlightAware ADS-B (KBHM)
Thu 05:52:58 PM 42.0265 -84.9648 88° East 488 562 33,000  Level FlightAware ADS-B (KBHM)
Thu 05:53:43 PM 42.0293 -84.8287 89° East 487 560 33,000  Level FlightAware ADS-B (KBHM)
Thu 05:54:27 PM 42.0317 -84.7228 89° East 486 559 33,000  Level Chicago Center
Thu 05:55:29 PM 42.0347 -84.5406 89° East 487 560 33,000  Level Chicago Center
Thu 05:56:31 PM 42.0378 -84.3606 89° East 486 559 33,000 -435 Level Chicago Center
Thu 05:57:33 PM 42.0400 -84.1425 89° East 486 559 32,100 -919 Descending Chicago Center
Thu 05:58:35 PM 42.0431 -83.9606 89° East 487 560 31,100 -968 Descending Chicago Center
Thu 05:59:37 PM 42.0453 -83.7831 89° East 483 556 30,100 -1,651 Descending Chicago Center
Thu 06:01:04 PM 42.0481 -83.5214 89° East 469 540 27,000 -2,134 Descending Cleveland Center
Thu 06:02:06 PM 42.0378 -83.3528 95° East 450 518 24,800 -2,081 Descending Cleveland Center
Thu 06:03:08 PM 42.0217 -83.1878 97° East 443 510 22,700 -1,968 Descending Cleveland Center
Thu 06:04:11 PM 42.0072 -83.0311 97° East 430 495 20,700 -1,872 Descending Cleveland Center
Thu 06:05:13 PM 41.9931 -82.8800 97° East 418 481 18,800 -1,839 Descending Cleveland Center
Thu 06:06:15 PM 41.9775 -82.7325 98° East 405 466 16,900 -1,909 Descending Cleveland Center
Thu 06:06:41 PM 41.9672 -82.6375 98° East 396 456 16,000 -2,143 Descending Cleveland Center
Thu 06:07:11 PM 41.9611 -82.5717 97° East 393 452 14,900 -2,023 Descending Cleveland Center
Thu 06:08:07 PM 41.9250 -82.4472 111° Southeast 389 448 13,100 -1,853 Descending Cleveland Center
Thu 06:08:19 PM 41.9194 -82.4258 109° East 389 448 12,800 -2,000 Descending Cleveland Center
Thu 06:09:07 PM 41.8850 -82.3164 113° Southeast 381 438 11,100 -1,935 Descending Cleveland Center
Thu 06:09:21 PM 41.8789 -82.2942 110° East 385 443 10,800 -1,082 Descending Cleveland Center
Thu 06:10:08 PM 41.8447 -82.1886 113° Southeast 367 422 10,000 -774 Descending Cleveland Center
Thu 06:10:23 PM 41.8411 -82.1717 106° East 363 418 10,000  Level Cleveland Center
Thu 06:11:09 PM 41.7828 -82.1108 142° Southeast 302 348 10,000  Level Cleveland Center
Thu 06:11:25 PM 41.7686 -82.0936 138° Southeast 314 361 10,000  Level Cleveland Center
Thu 06:12:03 PM 41.7194 -82.0469 145° Southeast 301 346 10,000  Level Cleveland Center
Thu 06:12:27 PM 41.6992 -82.0258 142° Southeast 310 357 10,000 -677 Level Cleveland Center
Thu 06:13:05 PM 41.6500 -81.9794 145° Southeast 307 353 9,300 -1,161 Descending Cleveland Center
Thu 06:13:29 PM 41.6292 -81.9581 142° Southeast 309 356 8,800 -1,400 Descending Cleveland Center
Thu 06:14:05 PM 41.5808 -81.9119 144° Southeast 307 353 7,900 -1,048 Descending Cleveland Center
Thu 06:14:32 PM 41.5492 -81.8808 144° Southeast 306 352 7,700 -492 Descending Cleveland Center
Thu 06:15:06 PM 41.5069 -81.8692 168° South 259 298 7,400 -677 Descending Cleveland Center
Thu 06:15:34 PM 41.4803 -81.8700 181° South 258 297 7,000 -500 Descending Cleveland Center
Thu 06:16:06 PM 41.4572 -81.9083 231° Southwest 217 250 6,900 -677 Descending Cleveland Center
Thu 06:16:36 PM 41.4397 -81.9339 228° Southwest 229 264 6,300 -1,475 Descending Cleveland Center
Thu 06:17:07 PM 41.4178 -81.9717 232° Southwest 218 251 5,400 -1,548 Descending Cleveland Center
Thu 06:17:38 PM 41.4039 -82.0000 237° Southwest 224 258 4,700 -1,527 Descending Cleveland Center
Thu 06:18:02 PM 41.3867 -82.0336 236° Southwest 221 254 4,000 -677 Descending Cleveland Center
Thu 06:18:40 PM 41.3694 -82.0675 236° Southwest 223 257 4,000  Level Cleveland Center
Thu 06:19:03 PM 41.3478 -82.0883 216° Southwest 203 234 4,000  Level Cleveland Center
Thu 06:19:42 PM 41.3281 -82.0700 145° Southeast 192 221 4,000 -590 Level Cleveland Center
Thu 06:20:04 PM 41.3225 -82.0453 107° East 159 183 3,400 -1,161 Descending Cleveland Center
Thu 06:20:44 PM 41.3267 -81.9997 83° East 178 205 2,800 -600 Descending Cleveland Center
Thu 06:21:04 PM 41.3303 -81.9853 72° East 166 191 2,800 -484 Level Cleveland Center
Thu 06:21:46 PM 41.3514 -81.9503 51° Northeast 166 191 2,300 -787 Descending Cleveland Center
Thu 06:22:05 PM 41.3600 -81.9372 49° Northeast 149 171 2,000 -774 Descending Cleveland Center
Thu 06:22:48 PM 41.3775 -81.9086 51° Northeast 152 175 1,500 -716 Descending Cleveland Center
Thu 06:23:12 PM 41.3872 -81.8942 48° Northeast 138 159 1,200 -677 Descending Cleveland Center
Thu 06:23:50 PM 41.4036 -81.8678 50° Northeast 146 168 800 -632 Descending Cleveland Center

Login

Don't have an account? Register now (free) for customized features, flight alerts, and more!